Time,TemperatureF,DewpointF,PressureIn,WindDirection,WindDirectionDegrees,WindSpeedMPH,WindSpeedGustMPH,Humidity,HourlyPrecipIn,Conditions,Clouds,dailyrainin,SolarRadiationWatts/m^2,SoftwareType,DateUTC
2013-04-24 08:50:00,69.7,53.8,29.78,SSE,157,2.0,3.0,57,0.00,,,0.00,749,Wunderground v.1.15,2013-04-24 14:50:00,
2013-04-24 08:55:00,69.8,53.9,29.78,East,95,3.0,3.0,57,0.00,,,0.00,761,Wunderground v.1.15,2013-04-24 14:55:00,
2013-04-24 09:00:00,69.7,53.8,29.78,ENE,60,7.0,7.0,57,0.00,,,0.00,775,Wunderground v.1.15,2013-04-24 15:00:00,
2013-04-24 09:05:00,69.9,53.5,29.78,NE,35,7.0,7.0,56,0.00,,,0.00,789,Wunderground v.1.15,2013-04-24 15:05:00,
2013-04-24 09:10:00,70.2,54.2,29.78,NE,56,8.0,8.0,57,0.00,,,0.00,805,Wunderground v.1.15,2013-04-24 15:10:00,
2013-04-24 09:15:00,70.4,53.5,29.78,NNE,24,9.0,10.0,55,0.00,,,0.00,814,Wunderground v.1.15,2013-04-24 15:15:00,
2013-04-24 09:20:00,70.3,54.3,29.78,ESE,113,9.0,9.0,57,0.00,,,0.00,830,Wunderground v.1.15,2013-04-24 15:20:00,
2013-04-24 09:25:00,70.5,54.0,29.78,ENE,65,10.0,16.0,56,0.00,,,0.00,842,Wunderground v.1.15,2013-04-24 15:25:00,
2013-04-24 09:30:00,70.5,54.5,29.78,NE,37,11.0,12.0,57,0.00,,,0.00,854,Wunderground v.1.15,2013-04-24 15:30:00,
2013-04-24 09:35:00,70.6,54.1,29.78,NNE,30,11.0,14.0,56,0.00,,,0.00,867,Wunderground v.1.15,2013-04-24 15:35:00,
2013-04-24 09:40:00,70.5,54.5,29.78,NE,56,10.0,18.0,57,0.00,,,0.00,877,Wunderground v.1.15,2013-04-24 15:40:00,
2013-04-24 09:45:00,70.5,54.5,29.78,NE,51,11.0,18.0,57,0.00,,,0.00,886,Wunderground v.1.15,2013-04-24 15:45:00,
2013-04-24 09:50:00,70.5,55.0,29.78,East,92,11.0,11.0,58,0.00,,,0.00,898,Wunderground v.1.15,2013-04-24 15:50:00,
2013-04-24 09:55:00,70.9,54.9,29.78,NE,47,9.0,14.0,57,0.00,,,0.00,907,Wunderground v.1.15,2013-04-24 15:55:00,
2013-04-24 10:00:00,70.9,54.9,29.78,NE,38,10.0,18.0,57,0.00,,,0.00,916,Wunderground v.1.15,2013-04-24 16:00:00,
2013-04-24 10:05:00,71.2,55.2,29.78,NE,38,11.0,18.0,57,0.00,,,0.00,926,Wunderground v.1.15,2013-04-24 16:05:00,
2013-04-24 10:10:00,71.2,54.7,29.78,North,11,9.0,18.0,56,0.00,,,0.00,935,Wunderground v.1.15,2013-04-24 16:10:00,
2013-04-24 10:15:00,71.0,55.0,29.78,ENE,63,12.0,18.0,57,0.00,,,0.00,942,Wunderground v.1.15,2013-04-24 16:15:00,
2013-04-24 10:25:00,71.2,54.7,29.77,NE,41,11.0,18.0,56,0.00,,,0.00,958,Wunderground v.1.15,2013-04-24 16:25:00,
2013-04-24 10:30:00,71.7,55.2,29.78,NE,39,9.0,9.0,56,0.00,,,0.00,963,Wunderground v.1.15,2013-04-24 16:30:00,
2013-04-24 10:35:00,71.5,55.0,29.77,East,84,9.0,18.0,56,0.00,,,0.00,967,Wunderground v.1.15,2013-04-24 16:35:00,
2013-04-24 10:40:00,72.0,55.4,29.78,NE,53,7.0,18.0,56,0.00,,,0.00,976,Wunderground v.1.15,2013-04-24 16:40:00,
2013-04-24 10:50:00,72.7,56.1,29.78,East,98,7.0,7.0,56,0.00,,,0.00,984,Wunderground v.1.15,2013-04-24 16:50:00,
2013-04-24 10:55:00,72.8,55.7,29.77,NE,39,7.0,18.0,55,0.00,,,0.00,990,Wunderground v.1.15,2013-04-24 16:55:00,
2013-04-24 11:00:00,73.2,56.6,29.77,SE,128,6.0,6.0,56,0.00,,,0.00,991,Wunderground v.1.15,2013-04-24 17:00:00,
2013-04-24 11:05:00,73.6,57.4,29.77,NNE,29,5.0,18.0,57,0.00,,,0.00,993,Wunderground v.1.15,2013-04-24 17:05:00,
2013-04-24 11:10:00,73.1,56.5,29.77,NE,45,7.0,18.0,56,0.00,,,0.00,997,Wunderground v.1.15,2013-04-24 17:10:00,
2013-04-24 11:15:00,72.6,57.0,29.76,NE,49,8.0,18.0,58,0.00,,,0.00,998,Wunderground v.1.15,2013-04-24 17:15:00,
2013-04-24 11:20:00,72.9,56.8,29.76,NNE,13,7.0,7.0,57,0.00,,,0.00,997,Wunderground v.1.15,2013-04-24 17:20:00,
2013-04-24 11:25:00,72.9,56.8,29.75,East,88,8.0,8.0,57,0.00,,,0.00,1000,Wunderground v.1.15,2013-04-24 17:25:00,
2013-04-24 11:30:00,72.5,57.4,29.75,NE,42,9.0,18.0,59,0.00,,,0.00,1002,Wunderground v.1.15,2013-04-24 17:30:00,
2013-04-24 11:35:00,72.5,56.9,29.75,NNE,26,8.0,18.0,58,0.00,,,0.00,1002,Wunderground v.1.15,2013-04-24 17:35:00,
2013-04-24 11:40:00,72.4,56.8,29.75,NE,40,9.0,18.0,58,0.00,,,0.00,1000,Wunderground v.1.15,2013-04-24 17:40:00,
2013-04-24 11:45:00,72.5,57.4,29.75,NE,44,8.0,18.0,59,0.00,,,0.00,1000,Wunderground v.1.15,2013-04-24 17:45:00,
2013-04-24 11:50:00,72.7,57.5,29.74,NNE,19,5.0,5.0,59,0.00,,,0.00,1000,Wunderground v.1.15,2013-04-24 17:50:00,
2013-04-24 11:55:00,72.8,57.6,29.74,East,91,7.0,7.0,59,0.00,,,0.00,998,Wunderground v.1.15,2013-04-24 17:55:00,
2013-04-24 12:00:00,72.9,57.3,29.74,NE,55,8.0,18.0,58,0.00,,,0.00,997,Wunderground v.1.15,2013-04-24 18:00:00,
2013-04-24 12:05:00,72.7,57.5,29.74,NNE,30,8.0,18.0,59,0.00,,,0.00,991,Wunderground v.1.15,2013-04-24 18:05:00,
2013-04-24 12:10:00,72.6,57.9,29.73,NE,51,8.0,8.0,60,0.00,,,0.00,997,Wunderground v.1.15,2013-04-24 18:10:00,
2013-04-24 12:15:00,72.7,58.0,29.73,NE,40,6.0,18.0,60,0.00,,,0.00,988,Wunderground v.1.15,2013-04-24 18:15:00,
2013-04-24 12:20:00,73.5,58.8,29.72,NNE,33,4.0,4.0,60,0.00,,,0.00,1004,Wunderground v.1.15,2013-04-24 18:20:00,
2013-04-24 12:24:00,73.5,58.3,29.72,NE,37,5.0,15.0,59,0.00,,,0.00,983,Wunderground v.1.15,2013-04-24 18:24:00,
2013-04-24 12:30:00,73.0,58.3,29.72,SSE,159,8.0,8.0,60,0.00,,,0.00,995,Wunderground v.1.15,2013-04-24 18:30:00,
2013-04-24 12:35:00,73.1,58.4,29.72,East,95,7.0,18.0,60,0.00,,,0.00,983,Wunderground v.1.15,2013-04-24 18:35:00,
2013-04-24 12:40:00,73.6,59.3,29.71,ENE,57,4.0,18.0,61,0.00,,,0.00,976,Wunderground v.1.15,2013-04-24 18:40:00,
2013-04-24 12:45:00,73.9,59.1,29.71,NE,43,5.0,18.0,60,0.00,,,0.00,962,Wunderground v.1.15,2013-04-24 18:45:00,
2013-04-24 12:50:00,73.6,58.9,29.71,NNE,20,7.0,18.0,60,0.00,,,0.00,981,Wunderground v.1.15,2013-04-24 18:50:00,
2013-04-24 12:55:00,72.8,58.6,29.71,East,94,8.0,18.0,61,0.00,,,0.00,956,Wunderground v.1.15,2013-04-24 18:55:00,
2013-04-24 13:05:00,72.3,58.5,29.70,NE,55,8.0,20.0,62,0.00,,,0.00,680,Wunderground v.1.15,2013-04-24 19:05:00,
2013-04-24 13:10:00,72.2,58.9,29.70,ENE,62,10.0,10.0,63,0.00,,,0.00,1005,Wunderground v.1.15,2013-04-24 19:10:00,
2013-04-24 13:15:00,72.6,58.8,29.70,ESE,120,7.0,18.0,62,0.00,,,0.00,912,Wunderground v.1.15,2013-04-24 19:15:00,
2013-04-24 13:20:00,72.9,59.1,29.70,ESE,121,5.0,5.0,62,0.00,,,0.00,833,Wunderground v.1.15,2013-04-24 19:20:00,
2013-04-24 13:24:00,72.9,58.7,29.69,NE,53,6.0,6.0,61,0.00,,,0.00,886,Wunderground v.1.15,2013-04-24 19:24:00,
2013-04-24 13:30:00,72.5,59.2,29.69,ENE,71,8.0,18.0,63,0.00,,,0.00,851,Wunderground v.1.15,2013-04-24 19:30:00,
2013-04-24 13:35:00,72.1,58.8,29.69,NE,36,10.0,18.0,63,0.00,,,0.00,877,Wunderground v.1.15,2013-04-24 19:35:00,
2013-04-24 13:40:00,72.2,58.9,29.69,NE,48,9.0,18.0,63,0.00,,,0.00,909,Wunderground v.1.15,2013-04-24 19:40:00,
2013-04-24 13:45:00,71.9,59.1,29.69,NE,55,9.0,18.0,64,0.00,,,0.00,846,Wunderground v.1.15,2013-04-24 19:45:00,
2013-04-24 13:50:00,71.4,58.6,29.69,ENE,59,10.0,18.0,64,0.00,,,0.00,826,Wunderground v.1.15,2013-04-24 19:50:00,
2013-04-24 13:55:00,71.6,59.6,29.69,East,85,10.0,18.0,66,0.00,,,0.00,823,Wunderground v.1.15,2013-04-24 19:55:00,
2013-04-24 14:00:00,71.2,58.8,29.69,ENE,78,10.0,10.0,65,0.00,,,0.00,805,Wunderground v.1.15,2013-04-24 20:00:00,
2013-04-24 14:05:00,71.2,58.8,29.69,NNE,30,9.0,12.0,65,0.00,,,0.00,793,Wunderground v.1.15,2013-04-24 20:05:00,
2013-04-24 14:10:00,71.5,58.7,29.69,NE,50,8.0,8.0,64,0.00,,,0.00,784,Wunderground v.1.15,2013-04-24 20:10:00,
2013-04-24 14:15:00,71.4,59.0,29.69,NE,42,9.0,9.0,65,0.00,,,0.00,772,Wunderground v.1.15,2013-04-24 20:15:00,
2013-04-24 14:20:00,71.4,58.6,29.68,NE,47,9.0,18.0,64,0.00,,,0.00,744,Wunderground v.1.15,2013-04-24 20:20:00,
2013-04-24 14:24:00,71.4,58.6,29.68,NE,43,8.0,18.0,64,0.00,,,0.00,724,Wunderground v.1.15,2013-04-24 20:24:00,
2013-04-24 14:30:00,71.6,58.8,29.68,ESE,108,7.0,18.0,64,0.00,,,0.00,707,Wunderground v.1.15,2013-04-24 20:30:00,
2013-04-24 14:35:00,71.4,58.6,29.67,NE,37,7.0,18.0,64,0.00,,,0.00,710,Wunderground v.1.15,2013-04-24 20:35:00,
2013-04-24 14:40:00,71.7,58.4,29.67,NE,44,7.0,7.0,63,0.00,,,0.00,680,Wunderground v.1.15,2013-04-24 20:40:00,
2013-04-24 14:45:00,71.9,59.1,29.67,North,9,6.0,17.0,64,0.00,,,0.00,671,Wunderground v.1.15,2013-04-24 20:45:00,
2013-04-24 14:50:00,71.6,59.2,29.68,NNW,344,7.0,18.0,65,0.00,,,0.00,661,Wunderground v.1.15,2013-04-24 20:50:00,
2013-04-24 14:55:00,71.2,59.7,29.68,NNE,15,9.0,18.0,67,0.00,,,0.00,621,Wunderground v.1.15,2013-04-24 20:55:00,
2013-04-24 15:00:00,71.2,59.3,29.68,ESE,105,7.0,18.0,66,0.00,,,0.00,603,Wunderground v.1.15,2013-04-24 21:00:00,
2013-04-24 15:05:00,70.9,59.4,29.68,ENE,66,6.0,18.0,67,0.00,,,0.00,585,Wunderground v.1.15,2013-04-24 21:05:00,
2013-04-24 15:10:00,71.1,59.6,29.68,NE,49,5.0,18.0,67,0.00,,,0.00,568,Wunderground v.1.15,2013-04-24 21:10:00,
2013-04-24 15:15:00,70.7,58.8,29.67,East,80,8.0,18.0,66,0.00,,,0.00,547,Wunderground v.1.15,2013-04-24 21:15:00,
2013-04-24 15:20:00,70.5,59.0,29.67,East,91,8.0,18.0,67,0.00,,,0.00,524,Wunderground v.1.15,2013-04-24 21:20:00,
2013-04-24 15:24:00,70.6,58.3,29.67,NE,42,7.0,18.0,65,0.00,,,0.00,513,Wunderground v.1.15,2013-04-24 21:24:00,
2013-04-24 15:30:00,70.5,59.0,29.67,ESE,111,7.0,7.0,67,0.00,,,0.00,487,Wunderground v.1.15,2013-04-24 21:30:00,
2013-04-24 15:35:00,70.7,58.8,29.66,NE,50,7.0,18.0,66,0.00,,,0.00,471,Wunderground v.1.15,2013-04-24 21:35:00,
2013-04-24 15:40:00,70.4,58.9,29.67,NE,51,9.0,18.0,67,0.00,,,0.00,452,Wunderground v.1.15,2013-04-24 21:40:00,
2013-04-24 15:45:00,70.4,59.7,29.66,NNE,23,8.0,18.0,69,0.00,,,0.00,438,Wunderground v.1.15,2013-04-24 21:45:00,
2013-04-24 15:50:00,70.5,59.0,29.67,ENE,60,5.0,18.0,67,0.00,,,0.00,429,Wunderground v.1.15,2013-04-24 21:50:00,
2013-04-24 15:55:00,70.2,59.6,29.67,NE,55,6.0,18.0,69,0.00,,,0.00,387,Wunderground v.1.15,2013-04-24 21:55:00,
2013-04-24 16:00:00,69.8,59.6,29.67,East,80,8.0,8.0,70,0.00,,,0.00,371,Wunderground v.1.15,2013-04-24 22:00:00,
2013-04-24 16:10:00,69.2,59.4,29.66,NNE,33,8.0,8.0,71,0.00,,,0.00,330,Wunderground v.1.15,2013-04-24 22:10:00,
2013-04-24 16:15:00,69.0,59.6,29.66,NNE,13,9.0,10.0,72,0.00,,,0.00,309,Wunderground v.1.15,2013-04-24 22:15:00,
2013-04-24 16:20:00,68.8,59.4,29.66,NNE,32,9.0,18.0,72,0.00,,,0.00,288,Wunderground v.1.15,2013-04-24 22:20:00,
2013-04-24 16:24:00,68.9,59.5,29.67,ENE,75,9.0,18.0,72,0.00,,,0.00,272,Wunderground v.1.15,2013-04-24 22:24:00,
2013-04-24 16:30:00,68.7,59.3,29.67,North,5,9.0,18.0,72,0.00,,,0.00,246,Wunderground v.1.15,2013-04-24 22:30:00,